Time;durP1;ratioP1;P1;durP2;ratioP2;P2;SDS_P1;SDS_P2;PMS_P1;PMS_P2;Temp;Humidity;BMP_temperature;BMP_pressure;BME280_temperature;BME280_humidity;BME280_pressure;Samples;Min_cycle;Max_cycle;Signal;HPM_P1;HPM_P2
2022/01/05 00:00:31;;;;;;;16.70;3.20;;;;;;;3.27;80.93;99966.34;5013477;28;20443;-79
2022/01/05 00:02:57;;;;;;;13.10;3.30;;;;;;;3.22;79.82;99964.91;5012612;28;21529;-78
2022/01/05 00:05:22;;;;;;;14.25;2.83;;;;;;;3.14;80.36;99968.00;4991902;28;20038;-79
2022/01/05 00:07:48;;;;;;;25.67;3.63;;;;;;;3.14;81.42;99974.16;5010454;28;20038;-79
2022/01/05 00:10:13;;;;;;;14.35;3.05;;;;;;;3.11;80.20;99974.34;5015757;28;20029;-79
2022/01/05 00:12:39;;;;;;;15.32;2.95;;;;;;;3.10;83.62;99972.63;4999557;28;20071;-79
2022/01/05 00:15:05;;;;;;;8.48;2.42;;;;;;;3.05;81.27;99977.34;5000850;28;20087;-79
2022/01/05 00:17:30;;;;;;;14.25;3.00;;;;;;;3.03;82.75;99976.59;4994468;28;20030;-79
2022/01/05 00:19:56;;;;;;;18.55;3.50;;;;;;;3.00;81.64;99987.34;5013151;28;20116;-79
2022/01/05 00:22:22;;;;;;;15.63;2.97;;;;;;;2.99;82.32;99977.69;5011682;28;20033;-79
2022/01/05 00:24:47;;;;;;;9.80;2.50;;;;;;;2.95;82.51;99973.50;4993246;28;20076;-79
2022/01/05 00:27:12;;;;;;;12.88;3.05;;;;;;;2.92;82.26;99978.97;5010452;28;20044;-79
2022/01/05 00:29:37;;;;;;;14.50;3.47;;;;;;;2.89;83.76;99981.81;4992658;28;20030;-79
2022/01/05 00:32:03;;;;;;;13.15;3.00;;;;;;;2.84;83.04;99981.19;5011688;28;20033;-79
2022/01/05 00:34:29;;;;;;;12.40;2.92;;;;;;;2.76;83.46;99974.50;5009878;28;20109;-79
2022/01/05 00:36:54;;;;;;;9.88;2.78;;;;;;;2.74;83.21;99984.34;4997352;28;20030;-79
2022/01/05 00:39:19;;;;;;;14.73;2.85;;;;;;;2.71;83.28;99988.97;5018213;28;20048;-79
2022/01/05 00:41:45;;;;;;;18.33;3.58;;;;;;;2.67;83.58;99980.31;5009959;28;20057;-79
2022/01/05 00:44:10;;;;;;;12.43;3.33;;;;;;;2.61;81.61;99985.97;5012982;28;20108;-79
2022/01/05 00:46:35;;;;;;;13.85;3.30;;;;;;;2.60;81.46;99990.41;4992220;28;20025;-79
2022/01/05 00:49:00;;;;;;;14.20;3.03;;;;;;;2.60;81.62;99989.56;5011170;28;20049;-79
2022/01/05 00:51:26;;;;;;;13.35;3.45;;;;;;;2.58;81.64;99986.13;4990741;28;20525;-80
2022/01/05 00:53:51;;;;;;;15.25;3.38;;;;;;;2.57;81.63;99989.72;4994711;28;20021;-79
2022/01/05 00:56:16;;;;;;;18.35;4.18;;;;;;;2.57;82.21;100000.34;4991637;28;20040;-79
2022/01/05 00:58:42;;;;;;;21.05;3.55;;;;;;;2.59;82.21;99995.78;5009954;28;20436;-79
2022/01/05 01:01:07;;;;;;;21.02;4.15;;;;;;;2.57;81.33;100010.94;5011282;28;20075;-79
2022/01/05 01:03:32;;;;;;;19.27;3.60;;;;;;;2.56;82.33;100010.09;4992508;28;20029;-79
2022/01/05 01:05:59;;;;;;;21.17;4.07;;;;;;;2.53;82.05;100009.38;4991550;28;20103;-79
2022/01/05 01:08:25;;;;;;;15.07;3.35;;;;;;;2.51;81.05;100012.13;5009732;28;20057;-79
2022/01/05 01:10:50;;;;;;;15.77;3.72;;;;;;;2.46;81.77;100000.91;4991746;28;20021;-79
2022/01/05 01:13:18;;;;;;;17.33;3.92;;;;;;;2.42;81.70;100008.16;5009803;28;20030;-79
2022/01/05 01:15:45;;;;;;;19.45;3.28;;;;;;;2.38;82.01;100008.41;5013657;28;20155;-79
2022/01/05 01:18:11;;;;;;;8.57;3.17;;;;;;;2.40;82.40;100015.34;5006903;28;20025;-79
2022/01/05 01:20:37;;;;;;;11.60;3.10;;;;;;;2.40;81.57;100015.34;5009331;28;20057;-79
2022/01/05 01:23:02;;;;;;;9.57;2.80;;;;;;;2.37;80.79;100023.47;5003533;28;20078;-79
2022/01/05 01:25:28;;;;;;;12.82;3.15;;;;;;;2.35;81.54;100024.50;5000011;28;20026;-79
2022/01/05 01:27:53;;;;;;;16.60;3.60;;;;;;;2.33;82.19;100024.56;5009650;28;20498;-79
2022/01/05 01:30:18;;;;;;;16.00;4.05;;;;;;;2.31;81.71;100022.94;5010952;28;20033;-77
2022/01/05 01:32:43;;;;;;;14.05;3.47;;;;;;;2.25;81.13;100019.66;5012687;28;20039;-77
2022/01/05 01:35:09;;;;;;;16.00;3.65;;;;;;;2.20;81.17;100023.50;4993087;28;20044;-77
2022/01/05 01:37:34;;;;;;;15.27;3.40;;;;;;;2.17;80.59;100029.81;5014450;28;20051;-77
2022/01/05 01:40:00;;;;;;;11.38;3.08;;;;;;;2.13;81.81;100030.06;4994860;28;20030;-77
2022/01/05 01:42:25;;;;;;;14.50;3.45;;;;;;;2.05;82.12;100028.66;4990688;28;20120;-77
2022/01/05 01:44:51;;;;;;;14.05;3.85;;;;;;;2.03;81.85;100024.34;5017981;28;20025;-77
2022/01/05 01:47:16;;;;;;;10.13;3.05;;;;;;;2.00;82.28;100029.81;4997841;28;20037;-77
2022/01/05 01:49:42;;;;;;;15.02;3.70;;;;;;;1.98;80.33;100029.91;5018743;28;20034;-77
2022/01/05 01:52:07;;;;;;;15.55;3.35;;;;;;;2.00;81.36;100030.66;5006986;28;20125;-77
2022/01/05 01:54:35;;;;;;;15.40;3.40;;;;;;;1.97;80.59;100019.38;4993271;28;20472;-77
2022/01/05 01:57:01;;;;;;;13.73;3.22;;;;;;;1.95;81.00;100024.75;5008884;28;20029;-77
2022/01/05 01:59:27;;;;;;;17.75;3.17;;;;;;;1.96;80.20;100026.44;5013563;28;20025;-77
2022/01/05 02:01:54;;;;;;;19.23;3.33;;;;;;;1.96;80.19;100029.09;4991910;28;20026;-77
2022/01/05 02:04:20;;;;;;;13.35;2.85;;;;;;;1.94;80.09;100028.31;4989902;28;20120;-76
2022/01/05 02:06:45;;;;;;;13.88;2.95;;;;;;;1.92;80.14;100033.72;5012018;28;20873;-77
2022/01/05 02:09:10;;;;;;;12.38;3.42;;;;;;;1.96;80.19;100025.59;5015520;28;20053;-77
2022/01/05 02:11:38;;;;;;;19.70;4.13;;;;;;;1.97;79.52;100033.47;5007936;28;20061;-76
2022/01/05 02:14:03;;;;;;;12.10;2.83;;;;;;;1.99;79.34;100021.03;4990834;28;20040;-77
2022/01/05 02:16:31;;;;;;;12.18;3.55;;;;;;;1.99;80.41;100018.38;5014815;28;20464;-77
2022/01/05 02:18:58;;;;;;;15.15;2.83;;;;;;;1.99;79.02;100020.13;5006982;28;20053;-77
2022/01/05 02:21:24;;;;;;;8.57;2.78;;;;;;;1.96;78.97;100025.59;4993100;28;20442;-77
2022/01/05 02:23:49;;;;;;;11.15;2.65;;;;;;;1.94;79.63;100022.19;5008534;28;20116;-77
2022/01/05 02:26:14;;;;;;;11.85;3.58;;;;;;;1.90;80.33;100027.66;4992858;28;20120;-77
2022/01/05 02:28:41;;;;;;;15.60;3.03;;;;;;;1.89;81.59;100030.38;5008247;28;20040;-77
2022/01/05 02:31:06;;;;;;;18.45;3.35;;;;;;;1.86;80.87;100038.44;5008333;28;20103;-77
2022/01/05 02:33:32;;;;;;;12.00;2.72;;;;;;;1.81;81.27;100037.84;4989933;28;20029;-77
2022/01/05 02:35:57;;;;;;;15.98;3.30;;;;;;;1.79;80.10;100039.69;5012048;28;20484;-77
2022/01/05 02:38:23;;;;;;;9.77;2.83;;;;;;;1.75;80.67;100041.66;4998594;28;20037;-77
2022/01/05 02:40:50;;;;;;;12.57;3.28;;;;;;;1.73;80.88;100039.06;5020076;28;20030;-77
2022/01/05 02:43:15;;;;;;;10.82;2.70;;;;;;;1.71;80.71;100048.91;4983775;28;20756;-76
2022/01/05 02:45:41;;;;;;;10.88;2.95;;;;;;;1.68;81.29;100043.72;5021668;28;20056;-77
2022/01/05 02:48:06;;;;;;;15.73;3.10;;;;;;;1.68;81.33;100050.81;5011889;28;20084;-77
2022/01/05 02:50:32;;;;;;;16.70;3.65;;;;;;;1.68;81.10;100049.03;5015166;28;20029;-77
2022/01/05 02:52:57;;;;;;;12.32;3.00;;;;;;;1.67;81.91;100052.63;5011290;28;20041;-77
2022/01/05 02:55:22;;;;;;;13.70;2.90;;;;;;;1.59;81.59;100052.13;5021403;28;20045;-77
2022/01/05 02:57:48;;;;;;;16.70;3.67;;;;;;;1.59;81.79;100054.78;5011343;28;20544;-76
2022/01/05 03:00:16;;;;;;;19.65;3.85;;;;;;;1.56;81.75;100068.19;4996172;28;20029;-76
2022/01/05 03:02:41;;;;;;;19.13;3.25;;;;;;;1.51;81.40;100067.56;5013341;28;20053;-77
2022/01/05 03:05:07;;;;;;;11.98;2.72;;;;;;;1.49;82.07;100077.34;5002495;28;20486;-77
2022/01/05 03:07:37;;;;;;;15.70;3.33;;;;;;;1.45;81.69;100075.78;5012368;28;20072;-77
2022/01/05 03:10:03;;;;;;;15.43;4.15;;;;;;;1.46;82.04;100074.84;5028004;28;20049;-77
2022/01/05 03:12:28;;;;;;;15.02;2.92;;;;;;;1.45;82.10;100071.34;5011251;28;20042;-77
2022/01/05 03:14:54;;;;;;;12.57;3.28;;;;;;;1.47;81.71;100077.44;4997049;28;20040;-77
2022/01/05 03:17:19;;;;;;;10.48;2.95;;;;;;;1.47;81.90;100087.16;5013171;28;20490;-77
2022/01/05 03:19:44;;;;;;;17.13;3.33;;;;;;;1.46;81.13;100093.38;4993684;28;20026;-77
2022/01/05 03:22:09;;;;;;;13.30;2.97;;;;;;;1.48;82.14;100094.16;4997285;28;20036;-76
2022/01/05 03:24:34;;;;;;;13.18;3.47;;;;;;;1.48;82.04;100096.81;5023099;28;20037;-77
2022/01/05 03:27:00;;;;;;;14.13;3.42;;;;;;;1.48;81.77;100099.47;4997152;28;20161;-76
2022/01/05 03:29:25;;;;;;;12.05;2.85;;;;;;;1.46;80.96;100101.34;4993669;28;20025;-76
2022/01/05 03:31:51;;;;;;;13.57;2.90;;;;;;;1.45;81.53;100099.59;5012601;28;20132;-76
2022/01/05 03:34:19;;;;;;;12.02;3.22;;;;;;;1.45;82.10;100097.84;5008677;28;20406;-76
2022/01/05 03:36:45;;;;;;;10.30;3.00;;;;;;;1.44;81.39;100100.56;5020156;28;20207;-76
2022/01/05 03:39:10;;;;;;;14.50;3.35;;;;;;;1.42;81.23;100105.06;5010684;28;20117;-76
2022/01/05 03:41:36;;;;;;;11.77;3.20;;;;;;;1.44;82.24;100113.78;4992876;28;20072;-76
2022/01/05 03:44:01;;;;;;;15.68;3.60;;;;;;;1.43;80.77;100112.06;5022710;28;20090;-76
2022/01/05 03:46:27;;;;;;;16.42;3.72;;;;;;;1.41;81.32;100114.78;5006914;28;20021;-76
2022/01/05 03:48:53;;;;;;;14.25;3.45;;;;;;;1.43;81.49;100112.06;4992854;28;20398;-76
2022/01/05 03:51:18;;;;;;;15.48;3.47;;;;;;;1.40;80.55;100108.63;5018994;28;20041;-76
2022/01/05 03:53:44;;;;;;;8.98;2.78;;;;;;;1.45;81.27;100115.50;5017026;28;20033;-76
2022/01/05 03:56:09;;;;;;;15.55;2.90;;;;;;;1.50;81.30;100121.44;4997370;28;20120;-76
2022/01/05 03:58:34;;;;;;;15.48;3.13;;;;;;;1.58;80.29;100121.91;4993553;28;20033;-76
2022/01/05 04:01:00;;;;;;;16.02;3.25;;;;;;;1.63;79.89;100111.13;4998446;28;20033;-77
2022/01/05 04:03:25;;;;;;;14.45;2.90;;;;;;;1.70;79.97;100115.19;5011132;28;20065;-76
2022/01/05 04:05:50;;;;;;;14.32;4.00;;;;;;;1.72;79.02;100113.31;4991674;28;20041;-76
2022/01/05 04:08:16;;;;;;;15.25;2.78;;;;;;;1.76;79.81;100122.84;5010110;28;20037;-76
2022/01/05 04:10:41;;;;;;;14.40;3.17;;;;;;;1.79;79.27;100121.81;4991271;28;20085;-76
2022/01/05 04:13:07;;;;;;;14.68;2.85;;;;;;;1.80;79.97;100110.28;4991275;28;20022;-77
2022/01/05 04:15:33;;;;;;;16.38;3.45;;;;;;;1.79;79.21;100112.09;4990664;28;20069;-77
2022/01/05 04:17:58;;;;;;;16.20;3.75;;;;;;;1.78;79.01;100115.66;4990138;28;20510;-77
2022/01/05 04:20:24;;;;;;;15.77;3.47;;;;;;;1.74;78.74;100122.91;4991215;28;20030;-77
2022/01/05 04:22:49;;;;;;;14.95;3.25;;;;;;;1.72;79.06;100123.91;4992759;28;20037;-77
2022/01/05 04:25:15;;;;;;;14.25;3.08;;;;;;;1.71;79.56;100124.84;4989857;28;20030;-76
2022/01/05 04:27:41;;;;;;;14.73;3.60;;;;;;;1.66;79.03;100125.06;4989998;28;20455;-76
2022/01/05 04:30:08;;;;;;;13.20;3.08;;;;;;;1.63;79.39;100119.91;4989851;28;20034;-76
2022/01/05 04:32:35;;;;;;;17.77;3.03;;;;;;;1.64;80.24;100139.31;4988869;28;20030;-77
2022/01/05 04:35:00;;;;;;;14.90;2.65;;;;;;;1.62;79.28;100122.66;4998997;28;20092;-77
2022/01/05 04:37:26;;;;;;;19.60;3.70;;;;;;;1.63;79.05;100134.97;4990137;28;20038;-77
2022/01/05 04:39:52;;;;;;;16.83;3.30;;;;;;;1.62;79.98;100134.09;5005010;28;20101;-77
2022/01/05 04:42:18;;;;;;;19.33;4.00;;;;;;;1.61;79.72;100128.88;4990578;28;20095;-77
2022/01/05 04:44:43;;;;;;;15.77;4.07;;;;;;;1.58;79.29;100153.69;4988302;28;20061;-77
2022/01/05 04:47:09;;;;;;;21.38;3.90;;;;;;;1.63;79.67;100150.84;4989391;28;20526;-77
2022/01/05 04:49:35;;;;;;;22.40;5.10;;;;;;;1.63;80.14;100151.72;4990040;28;20026;-77
2022/01/05 04:52:00;;;;;;;17.75;3.97;;;;;;;1.65;79.81;100152.47;4987446;28;20076;-78
2022/01/05 04:54:26;;;;;;;15.38;4.75;;;;;;;1.70;80.53;100147.00;4989743;28;20032;-78
2022/01/05 04:56:51;;;;;;;21.85;5.20;;;;;;;1.75;80.95;100143.16;4988438;28;20022;-78
2022/01/05 04:59:16;;;;;;;21.58;4.50;;;;;;;1.80;80.15;100153.56;4989896;28;20034;-78
2022/01/05 05:01:41;;;;;;;21.08;4.47;;;;;;;1.84;80.50;100147.16;4991421;28;20050;-78
2022/01/05 05:04:07;;;;;;;18.75;4.70;;;;;;;1.90;80.82;100157.47;4990302;28;20093;-78
2022/01/05 05:06:32;;;;;;;17.08;4.47;;;;;;;1.95;80.27;100157.25;4988943;28;20105;-78
2022/01/05 05:08:57;;;;;;;18.90;3.63;;;;;;;2.00;80.57;100171.13;4990345;28;20201;-77
2022/01/05 05:11:23;;;;;;;19.40;4.22;;;;;;;2.04;80.35;100172.69;5009771;28;20133;-77
2022/01/05 05:13:48;;;;;;;10.80;3.22;;;;;;;2.08;80.61;100161.03;5011760;28;20413;-77
2022/01/05 05:16:13;;;;;;;15.75;3.47;;;;;;;2.12;80.91;100161.72;4995562;28;20030;-77
2022/01/05 05:18:38;;;;;;;18.13;3.58;;;;;;;2.13;80.74;100162.59;4993796;28;20042;-76
2022/01/05 05:21:04;;;;;;;21.45;4.30;;;;;;;2.13;80.17;100150.19;4993697;28;20068;-77
2022/01/05 05:23:29;;;;;;;12.48;2.85;;;;;;;2.14;80.22;100161.63;5008860;28;20355;-77
2022/01/05 05:25:55;;;;;;;17.67;4.35;;;;;;;2.16;79.92;100149.19;5008771;28;20050;-77
2022/01/05 05:28:20;;;;;;;16.23;3.58;;;;;;;2.15;79.69;100155.41;4999874;28;20029;-77
2022/01/05 05:30:46;;;;;;;16.17;3.78;;;;;;;2.14;79.53;100154.56;5012144;28;20026;-77
2022/01/05 05:33:11;;;;;;;16.70;3.08;;;;;;;2.13;79.97;100149.34;5018451;28;20026;-77
2022/01/05 05:35:38;;;;;;;18.75;4.18;;;;;;;2.15;80.25;100150.09;4990352;28;20022;-76
2022/01/05 05:38:03;;;;;;;18.38;4.22;;;;;;;2.15;80.19;100136.84;5008969;28;20482;-77
2022/01/05 05:40:28;;;;;;;21.35;4.75;;;;;;;2.19;80.20;100151.69;4997679;28;20042;-77
2022/01/05 05:42:53;;;;;;;15.35;2.80;;;;;;;2.19;80.60;100154.31;4991563;28;20512;-77
2022/01/05 05:45:19;;;;;;;20.63;4.50;;;;;;;2.20;79.65;100156.06;5013959;28;20076;-77
2022/01/05 05:47:44;;;;;;;19.63;3.80;;;;;;;2.19;80.61;100154.31;5007793;28;20033;-77
2022/01/05 05:50:10;;;;;;;15.95;3.40;;;;;;;2.19;80.66;100159.63;5013161;28;20036;-77
2022/01/05 05:52:36;;;;;;;18.05;3.95;;;;;;;2.18;79.53;100155.25;4990535;28;20116;-77
2022/01/05 05:55:02;;;;;;;16.58;3.70;;;;;;;2.21;79.90;100160.41;4990844;28;20110;-77
2022/01/05 05:57:27;;;;;;;14.05;3.50;;;;;;;2.19;80.47;100167.59;4989681;28;20030;-77
2022/01/05 05:59:52;;;;;;;17.98;3.85;;;;;;;2.22;80.22;100176.22;5008596;28;20041;-77
2022/01/05 06:02:18;;;;;;;19.42;3.95;;;;;;;2.20;80.80;100171.97;4992385;28;20037;-77
2022/01/05 06:04:43;;;;;;;23.35;4.30;;;;;;;2.21;81.18;100165.69;4990859;28;20501;-77
2022/01/05 06:07:08;;;;;;;20.05;4.50;;;;;;;2.21;81.03;100168.34;5009686;28;20136;-77
2022/01/05 06:09:33;;;;;;;18.40;4.13;;;;;;;2.22;81.45;100178.88;5009039;28;20058;-77
2022/01/05 06:11:59;;;;;;;20.38;4.25;;;;;;;2.21;81.11;100174.53;5008280;28;20030;-77
2022/01/05 06:14:24;;;;;;;22.33;4.22;;;;;;;2.21;81.19;100169.22;5010639;28;20040;-77
2022/01/05 06:16:49;;;;;;;14.38;3.53;;;;;;;2.21;81.27;100176.31;5007898;28;20072;-77
2022/01/05 06:19:14;;;;;;;15.48;3.75;;;;;;;2.19;81.66;100178.19;4988624;28;20406;-77
2022/01/05 06:21:40;;;;;;;16.83;3.28;;;;;;;2.18;81.78;100173.81;4987376;28;20025;-77
2022/01/05 06:24:05;;;;;;;12.57;3.50;;;;;;;2.17;81.77;100188.88;5006018;28;20378;-77
2022/01/05 06:26:31;;;;;;;19.88;4.40;;;;;;;2.18;81.39;100189.72;5007415;28;20034;-77
2022/01/05 06:28:56;;;;;;;13.10;3.97;;;;;;;2.18;81.84;100192.38;4999763;28;20042;-77
2022/01/05 06:31:21;;;;;;;18.10;4.07;;;;;;;2.15;81.23;100190.72;5019973;28;20128;-77
2022/01/05 06:33:46;;;;;;;13.30;3.83;;;;;;;2.17;82.31;100195.97;5011860;28;20035;-77
2022/01/05 06:36:12;;;;;;;21.38;4.18;;;;;;;2.18;81.23;100203.84;4989906;28;20347;-77
2022/01/05 06:38:37;;;;;;;19.40;3.97;;;;;;;2.20;82.19;100201.13;5007861;28;20044;-77
2022/01/05 06:41:02;;;;;;;15.30;3.25;;;;;;;2.22;82.11;100212.50;5007133;28;20390;-77
2022/01/05 06:43:30;;;;;;;13.77;3.47;;;;;;;2.22;82.66;100215.16;5008306;28;20104;-77
2022/01/05 06:45:55;;;;;;;15.57;3.58;;;;;;;2.22;81.61;100220.44;4999497;28;20095;-77
2022/01/05 06:48:21;;;;;;;23.63;4.85;;;;;;;2.23;82.39;100219.53;5007998;28;20041;-77
2022/01/05 06:50:46;;;;;;;11.80;3.60;;;;;;;2.25;82.18;100222.94;4990319;28;20112;-77
2022/01/05 06:53:11;;;;;;;15.40;3.95;;;;;;;2.28;82.51;100225.44;4990266;28;20685;-77
2022/01/05 06:55:36;;;;;;;16.65;3.70;;;;;;;2.29;82.16;100221.88;4989896;28;20029;-77
2022/01/05 06:58:02;;;;;;;14.73;3.97;;;;;;;2.28;82.23;100228.09;5006933;28;20029;-77
2022/01/05 07:00:28;;;;;;;18.20;4.30;;;;;;;2.25;81.88;100228.25;4995871;28;20143;-77
2022/01/05 07:02:53;;;;;;;13.05;3.55;;;;;;;2.25;82.53;100238.84;5016920;28;20068;-77
2022/01/05 07:05:18;;;;;;;14.35;3.50;;;;;;;2.27;81.47;100252.91;5007522;28;20054;-77
2022/01/05 07:07:44;;;;;;;26.55;5.00;;;;;;;2.29;81.98;100250.19;4993129;28;20033;-77
2022/01/05 07:10:11;;;;;;;18.08;4.22;;;;;;;2.31;81.83;100254.47;5013469;28;20805;-77
2022/01/05 07:12:37;;;;;;;20.45;4.68;;;;;;;2.34;82.29;100258.75;4989176;28;20049;-77
2022/01/05 07:15:03;;;;;;;17.42;4.45;;;;;;;2.35;82.37;100253.38;5008407;28;20137;-77
2022/01/05 07:17:29;;;;;;;20.40;4.35;;;;;;;2.36;82.53;100254.25;5008012;28;20095;-77
2022/01/05 07:19:54;;;;;;;17.10;4.18;;;;;;;2.37;82.66;100256.84;4977322;28;20034;-77
2022/01/05 07:22:20;;;;;;;17.40;4.03;;;;;;;2.37;82.62;100254.19;4993025;28;20028;-77
2022/01/05 07:24:45;;;;;;;19.30;3.40;;;;;;;2.38;82.67;100271.78;5014319;28;20121;-77
2022/01/05 07:27:10;;;;;;;14.10;3.78;;;;;;;2.40;83.03;100269.94;5011403;28;20034;-77
2022/01/05 07:29:35;;;;;;;15.85;3.70;;;;;;;2.43;82.71;100266.25;4993595;28;20026;-77
2022/01/05 07:32:01;;;;;;;24.42;4.90;;;;;;;2.45;83.51;100270.56;5027014;28;20159;-77
2022/01/05 07:34:26;;;;;;;18.77;4.90;;;;;;;2.46;82.81;100263.50;5017917;28;20030;-77
2022/01/05 07:36:51;;;;;;;19.77;4.85;;;;;;;2.48;83.07;100271.38;4993370;28;20043;-77
2022/01/05 07:39:17;;;;;;;16.35;4.10;;;;;;;2.50;82.95;100273.00;5011468;28;20049;-77
2022/01/05 07:41:42;;;;;;;15.98;3.88;;;;;;;2.53;83.85;100274.63;5010867;28;20101;-77
2022/01/05 07:44:07;;;;;;;19.25;4.38;;;;;;;2.55;82.92;100275.44;5021927;28;20119;-77
2022/01/05 07:46:33;;;;;;;23.25;5.00;;;;;;;2.59;82.54;100285.81;4992543;28;20022;-77
2022/01/05 07:48:59;;;;;;;19.05;4.80;;;;;;;2.62;83.68;100279.47;5008754;28;20489;-77
2022/01/05 07:51:24;;;;;;;14.90;3.83;;;;;;;2.68;83.11;100289.81;4991368;28;20034;-77
2022/01/05 07:53:49;;;;;;;13.90;3.95;;;;;;;2.71;82.54;100299.38;4992131;28;20040;-77
2022/01/05 07:56:15;;;;;;;17.85;4.50;;;;;;;2.75;83.44;100296.53;5003360;28;20029;-77
2022/01/05 07:58:40;;;;;;;18.92;4.82;;;;;;;2.79;82.19;100300.72;5008345;28;20155;-77
2022/01/05 08:01:06;;;;;;;18.30;4.07;;;;;;;2.84;83.12;100310.25;4994880;28;20031;-77
2022/01/05 08:03:33;;;;;;;13.60;3.92;;;;;;;2.88;83.04;100296.75;4993278;28;20478;-77
2022/01/05 08:06:00;;;;;;;16.77;3.83;;;;;;;2.93;83.59;100309.81;4990130;28;20061;-78
2022/01/05 08:08:26;;;;;;;15.93;3.78;;;;;;;2.98;82.47;100321.06;4999207;28;20045;-78
2022/01/05 08:10:51;;;;;;;17.83;4.55;;;;;;;3.03;82.79;100316.38;5009914;28;20049;-78
2022/01/05 08:13:16;;;;;;;20.85;5.38;;;;;;;3.09;83.24;100324.03;5018685;28;20043;-78
2022/01/05 08:15:42;;;;;;;13.70;3.28;;;;;;;3.15;82.61;100326.38;4998602;28;20402;-78
2022/01/05 08:18:07;;;;;;;22.08;4.22;;;;;;;3.21;82.26;100316.38;5010219;28;20037;-77
2022/01/05 08:20:32;;;;;;;18.48;3.85;;;;;;;3.25;81.32;100323.25;5013180;28;20092;-77
2022/01/05 08:22:57;;;;;;;16.20;3.97;;;;;;;3.32;80.81;100337.91;4996010;28;20029;-77
2022/01/05 08:25:23;;;;;;;19.13;3.65;;;;;;;3.38;80.93;100324.31;5020751;28;20037;-77
2022/01/05 08:27:48;;;;;;;16.48;3.92;;;;;;;3.43;80.96;100324.94;5008879;28;20765;-78
2022/01/05 08:30:19;;;;;;;16.20;3.95;;;;;;;3.47;81.09;100325.63;5008777;28;20033;-78
2022/01/05 08:32:46;;;;;;;16.42;3.50;;;;;;;3.53;80.67;100329.78;5010119;28;20030;-78
2022/01/05 08:35:13;;;;;;;13.23;3.30;;;;;;;3.54;80.50;100336.81;5009838;28;20339;-78
2022/01/05 08:37:43;;;;;;;19.80;4.13;;;;;;;3.56;79.86;100329.59;4991936;28;20366;-77
2022/01/05 08:40:09;;;;;;;16.42;3.90;;;;;;;3.58;79.68;100331.25;5009371;28;20144;-78
2022/01/05 08:42:34;;;;;;;17.75;4.70;;;;;;;3.63;79.65;100326.56;5010574;28;20056;-78
2022/01/05 08:44:59;;;;;;;18.23;4.25;;;;;;;3.70;79.79;100329.75;5013621;28;20061;-77
2022/01/05 08:47:25;;;;;;;18.92;4.00;;;;;;;3.73;80.40;100331.38;5017698;28;20132;-78
2022/01/05 08:49:50;;;;;;;13.57;3.00;;;;;;;3.77;79.45;100336.47;5009754;28;20200;-78
2022/01/05 08:52:15;;;;;;;17.95;4.20;;;;;;;3.78;79.52;100335.53;4990696;28;20091;-78
2022/01/05 08:54:40;;;;;;;15.95;3.78;;;;;;;3.78;79.00;100335.53;4995706;28;20036;-78
2022/01/05 08:57:06;;;;;;;18.65;4.00;;;;;;;3.78;79.41;100326.69;4995722;28;20129;-78
2022/01/05 08:59:31;;;;;;;16.67;3.97;;;;;;;3.78;79.32;100332.03;5008158;28;22409;-79
2022/01/05 09:01:57;;;;;;;21.90;3.97;;;;;;;3.78;79.02;100335.53;4990522;28;20030;-78
2022/01/05 09:04:22;;;;;;;16.15;3.47;;;;;;;3.80;78.90;100346.06;4989514;28;20509;-78
2022/01/05 09:06:48;;;;;;;16.60;3.80;;;;;;;3.86;79.22;100351.06;4992951;28;20095;-78
2022/01/05 09:09:13;;;;;;;17.98;4.38;;;;;;;3.93;79.42;100352.44;5020287;28;20088;-78
2022/01/05 09:11:38;;;;;;;19.88;3.97;;;;;;;3.99;78.94;100364.56;5008710;28;20033;-77
2022/01/05 09:14:04;;;;;;;18.23;3.97;;;;;;;4.03;79.21;100350.16;5007412;28;20065;-77
2022/01/05 09:16:29;;;;;;;16.95;3.60;;;;;;;4.06;78.98;100355.31;4997645;28;20029;-78
2022/01/05 09:18:55;;;;;;;16.00;3.72;;;;;;;4.09;78.43;100363.13;5007372;28;20018;-78
2022/01/05 09:21:20;;;;;;;18.35;4.15;;;;;;;4.12;78.60;100354.97;4987555;28;20064;-78
2022/01/05 09:23:45;;;;;;;24.15;4.30;;;;;;;4.17;78.15;100352.06;4988692;28;20044;-78
2022/01/05 09:26:12;;;;;;;17.75;3.90;;;;;;;4.21;78.72;100350.94;4989438;28;20045;-77
2022/01/05 09:28:42;;;;;;;20.08;4.30;;;;;;;4.25;77.36;100354.31;5001468;28;20029;-78
2022/01/05 09:31:08;;;;;;;12.52;3.25;;;;;;;4.30;77.72;100376.19;4992710;28;20157;-77
2022/01/05 09:33:33;;;;;;;15.88;3.38;;;;;;;4.29;75.67;100370.03;4986437;28;20112;-78
2022/01/05 09:36:06;;;;;;;19.05;3.65;;;;;;;4.32;77.54;100379.59;5007016;28;20080;-78
2022/01/05 09:41:56;;;;;;;25.30;4.45;;;;;;;4.35;78.50;100388.31;4990360;28;20467;-77
2022/01/05 09:44:10;;;;;;;24.33;4.43;;;;;;;4.37;79.60;100382.88;5009623;28;20508;-77
2022/01/05 09:46:38;;;;;;;15.50;3.85;;;;;;;4.34;79.60;100401.69;4992345;28;20026;-78
2022/01/05 09:49:12;;;;;;;18.40;4.20;;;;;;;4.31;79.07;100407.19;4989403;28;20041;-77
2022/01/05 09:51:41;;;;;;;16.95;3.10;;;;;;;4.29;79.18;100401.94;5006800;28;20111;-77
2022/01/05 09:54:12;;;;;;;22.70;3.72;;;;;;;4.26;79.70;100409.22;4989339;28;20036;-77
2022/01/05 09:56:38;;;;;;;19.27;4.47;;;;;;;4.25;80.35;100402.19;4991169;28;20112;-77
2022/01/05 09:59:04;;;;;;;17.13;3.85;;;;;;;4.24;79.75;100395.16;5005917;28;20128;-77
2022/01/05 10:01:31;;;;;;;19.40;4.40;;;;;;;4.23;80.10;100412.03;5009609;28;20026;-77
2022/01/05 10:03:58;;;;;;;17.02;4.03;;;;;;;4.26;79.20;100404.78;4993532;28;20515;-77
2022/01/05 10:06:23;;;;;;;17.60;3.72;;;;;;;4.27;79.95;100400.31;4991592;28;20045;-78
2022/01/05 10:08:48;;;;;;;13.60;3.17;;;;;;;4.30;79.61;100400.13;5003134;28;20119;-77
2022/01/05 10:11:14;;;;;;;22.60;3.88;;;;;;;4.31;79.51;100412.50;4986183;28;20045;-78
2022/01/05 10:13:39;;;;;;;23.25;4.60;;;;;;;4.35;79.96;100411.41;4985211;28;20418;-77
2022/01/05 10:16:05;;;;;;;13.10;3.53;;;;;;;4.38;80.14;100404.09;4996996;28;20017;-78
2022/01/05 10:18:42;;;;;;;16.00;3.95;;;;;;;4.44;80.06;100415.34;5003066;28;20512;-77
2022/01/05 10:21:07;;;;;;;23.60;4.80;;;;;;;4.48;79.59;100417.75;5002118;28;20033;-77
2022/01/05 10:23:33;;;;;;;19.25;4.15;;;;;;;4.54;79.63;100412.09;4989409;28;20025;-78
2022/01/05 10:26:27;;;;;;;14.82;3.78;;;;;;;4.62;79.52;100422.31;5003355;28;20026;-77
2022/01/05 10:29:05;;;;;;;20.25;3.47;;;;;;;4.69;78.36;100438.81;4986908;28;20041;-77
2022/01/05 10:31:39;;;;;;;17.80;3.50;;;;;;;4.80;78.34;100431.09;4985021;28;20489;-77
2022/01/05 10:34:25;;;;;;;22.05;5.20;;;;;;;4.87;77.50;100423.59;5002949;28;20026;-78
2022/01/05 10:36:52;;;;;;;20.33;4.25;;;;;;;4.89;77.76;100422.56;5003201;28;20037;-78
2022/01/05 10:39:20;;;;;;;19.70;4.00;;;;;;;4.93;77.57;100428.56;5001837;28;20022;-77
2022/01/05 10:41:46;;;;;;;18.25;4.05;;;;;;;4.97;77.06;100426.63;5003837;28;20026;-78
2022/01/05 10:44:20;;;;;;;17.83;4.00;;;;;;;4.98;77.41;100442.50;5001468;28;20173;-78
2022/01/05 10:46:49;;;;;;;25.90;4.72;;;;;;;4.98;76.80;100439.84;5008660;28;20034;-78
2022/01/05 10:49:32;;;;;;;22.58;4.63;;;;;;;4.98;75.78;100445.16;5004735;28;20030;-77
2022/01/05 10:52:02;;;;;;;18.55;3.72;;;;;;;5.01;75.64;100452.13;4999252;28;20474;-78
2022/01/05 10:54:30;;;;;;;17.77;4.25;;;;;;;5.01;75.58;100450.31;4983656;28;20029;-78
2022/01/05 10:57:08;;;;;;;15.77;3.65;;;;;;;5.01;75.73;100460.97;5012950;28;20061;-78
2022/01/05 10:59:37;;;;;;;19.40;3.60;;;;;;;5.01;75.61;100462.78;5005115;28;20236;-78
2022/01/05 11:02:30;;;;;;;15.20;3.10;;;;;;;5.07;76.16;100471.28;4990137;28;20189;-78
2022/01/05 11:05:02;;;;;;;19.77;4.15;;;;;;;5.15;76.03;100470.81;4987298;28;20041;-78
2022/01/05 11:07:29;;;;;;;15.95;3.53;;;;;;;5.22;75.95;100471.34;5005490;28;20061;-78
2022/01/05 11:10:01;;;;;;;21.92;4.70;;;;;;;5.20;75.16;100479.44;5011501;28;20049;-77
2022/01/05 11:12:50;;;;;;;17.77;3.95;;;;;;;5.18;76.06;100476.00;5003742;28;20585;-77
2022/01/05 11:15:17;;;;;;;22.15;4.20;;;;;;;5.19;76.04;100480.38;4992192;28;20025;-77
2022/01/05 11:18:05;;;;;;;21.60;4.53;;;;;;;5.21;76.26;100483.81;5006996;28;20040;-78
2022/01/05 11:20:30;;;;;;;19.70;4.18;;;;;;;5.20;75.53;100482.09;5005054;28;20044;-78
2022/01/05 11:22:56;;;;;;;23.35;4.50;;;;;;;5.21;75.70;100490.94;4989725;28;20029;-78
2022/01/05 11:25:21;;;;;;;18.70;3.90;;;;;;;5.19;75.80;100475.03;4988660;28;20038;-79